sensor_id;sensor_type;location;lat;lon;timestamp;P1;durP1;ratioP1;P2;durP2;ratioP2
75535;SDS011;64119;52.070;20.804;2023-04-29T00:00:28;8.40;;;5.70;;
75535;SDS011;64119;52.070;20.804;2023-04-29T00:03:14;8.90;;;4.90;;
75535;SDS011;64119;52.070;20.804;2023-04-29T00:05:42;7.30;;;5.40;;
75535;SDS011;64119;52.070;20.804;2023-04-29T00:08:11;8.10;;;5.30;;
75535;SDS011;64119;52.070;20.804;2023-04-29T00:10:39;7.00;;;4.30;;
75535;SDS011;64119;52.070;20.804;2023-04-29T00:13:07;5.90;;;4.90;;
75535;SDS011;64119;52.070;20.804;2023-04-29T00:15:35;8.90;;;5.10;;
75535;SDS011;64119;52.070;20.804;2023-04-29T00:18:03;9.60;;;5.50;;
75535;SDS011;64119;52.070;20.804;2023-04-29T00:20:31;9.00;;;5.80;;
75535;SDS011;64119;52.070;20.804;2023-04-29T00:22:59;11.50;;;6.40;;
75535;SDS011;64119;52.070;20.804;2023-04-29T00:25:27;7.60;;;4.60;;
75535;SDS011;64119;52.070;20.804;2023-04-29T00:27:55;9.30;;;5.90;;
75535;SDS011;64119;52.070;20.804;2023-04-29T00:30:26;9.50;;;5.90;;
75535;SDS011;64119;52.070;20.804;2023-04-29T00:32:55;9.30;;;5.50;;
75535;SDS011;64119;52.070;20.804;2023-04-29T00:35:23;8.80;;;5.50;;
75535;SDS011;64119;52.070;20.804;2023-04-29T00:37:51;10.60;;;5.50;;
75535;SDS011;64119;52.070;20.804;2023-04-29T00:40:19;9.40;;;5.80;;
75535;SDS011;64119;52.070;20.804;2023-04-29T00:42:46;8.20;;;4.90;;
75535;SDS011;64119;52.070;20.804;2023-04-29T00:45:14;10.30;;;5.90;;
75535;SDS011;64119;52.070;20.804;2023-04-29T00:47:43;10.20;;;5.30;;
75535;SDS011;64119;52.070;20.804;2023-04-29T00:50:11;9.10;;;5.20;;
75535;SDS011;64119;52.070;20.804;2023-04-29T00:52:39;9.90;;;5.70;;
75535;SDS011;64119;52.070;20.804;2023-04-29T00:55:09;9.90;;;6.00;;
75535;SDS011;64119;52.070;20.804;2023-04-29T00:57:39;6.40;;;4.70;;
75535;SDS011;64119;52.070;20.804;2023-04-29T01:00:07;7.60;;;4.70;;
75535;SDS011;64119;52.070;20.804;2023-04-29T01:02:40;7.60;;;5.30;;
75535;SDS011;64119;52.070;20.804;2023-04-29T01:05:08;7.50;;;4.60;;
75535;SDS011;64119;52.070;20.804;2023-04-29T01:13:16;10.40;;;5.80;;
75535;SDS011;64119;52.070;20.804;2023-04-29T01:18:35;6.30;;;4.70;;
75535;SDS011;64119;52.070;20.804;2023-04-29T01:21:06;8.10;;;5.00;;
75535;SDS011;64119;52.070;20.804;2023-04-29T01:23:34;8.70;;;4.90;;
75535;SDS011;64119;52.070;20.804;2023-04-29T01:26:02;10.00;;;5.90;;
75535;SDS011;64119;52.070;20.804;2023-04-29T01:31:10;7.00;;;4.60;;
75535;SDS011;64119;52.070;20.804;2023-04-29T01:39:26;7.30;;;3.70;;
75535;SDS011;64119;52.070;20.804;2023-04-29T01:42:20;8.60;;;5.40;;
75535;SDS011;64119;52.070;20.804;2023-04-29T01:44:53;6.60;;;4.00;;
75535;SDS011;64119;52.070;20.804;2023-04-29T01:47:22;11.60;;;5.50;;
75535;SDS011;64119;52.070;20.804;2023-04-29T01:49:53;5.30;;;3.60;;
75535;SDS011;64119;52.070;20.804;2023-04-29T01:52:21;13.10;;;5.10;;
75535;SDS011;64119;52.070;20.804;2023-04-29T01:54:55;8.60;;;5.10;;
75535;SDS011;64119;52.070;20.804;2023-04-29T01:57:25;8.40;;;4.50;;
75535;SDS011;64119;52.070;20.804;2023-04-29T02:00:14;7.50;;;5.30;;
75535;SDS011;64119;52.070;20.804;2023-04-29T02:02:46;8.30;;;5.30;;
75535;SDS011;64119;52.070;20.804;2023-04-29T02:05:19;6.90;;;4.50;;
75535;SDS011;64119;52.070;20.804;2023-04-29T02:07:53;6.90;;;2.80;;
75535;SDS011;64119;52.070;20.804;2023-04-29T02:10:21;8.40;;;4.90;;
75535;SDS011;64119;52.070;20.804;2023-04-29T02:12:52;7.30;;;4.40;;
75535;SDS011;64119;52.070;20.804;2023-04-29T02:15:20;7.50;;;4.70;;
75535;SDS011;64119;52.070;20.804;2023-04-29T02:17:48;10.30;;;6.20;;
75535;SDS011;64119;52.070;20.804;2023-04-29T02:20:19;8.60;;;4.60;;
75535;SDS011;64119;52.070;20.804;2023-04-29T02:22:48;8.80;;;5.40;;
75535;SDS011;64119;52.070;20.804;2023-04-29T02:25:16;9.70;;;5.50;;
75535;SDS011;64119;52.070;20.804;2023-04-29T02:27:44;9.80;;;5.20;;
75535;SDS011;64119;52.070;20.804;2023-04-29T02:30:12;6.80;;;5.00;;
75535;SDS011;64119;52.070;20.804;2023-04-29T02:32:40;8.10;;;4.30;;
75535;SDS011;64119;52.070;20.804;2023-04-29T02:35:08;6.50;;;4.80;;
75535;SDS011;64119;52.070;20.804;2023-04-29T02:37:36;7.70;;;4.80;;
75535;SDS011;64119;52.070;20.804;2023-04-29T02:40:04;7.60;;;5.10;;
75535;SDS011;64119;52.070;20.804;2023-04-29T02:42:33;8.70;;;5.30;;
75535;SDS011;64119;52.070;20.804;2023-04-29T02:45:01;8.70;;;4.30;;
75535;SDS011;64119;52.070;20.804;2023-04-29T02:47:29;9.80;;;5.20;;
75535;SDS011;64119;52.070;20.804;2023-04-29T02:49:56;7.90;;;5.10;;
75535;SDS011;64119;52.070;20.804;2023-04-29T02:52:24;7.70;;;4.70;;
75535;SDS011;64119;52.070;20.804;2023-04-29T02:54:52;7.80;;;5.00;;
75535;SDS011;64119;52.070;20.804;2023-04-29T02:57:20;8.10;;;4.30;;
75535;SDS011;64119;52.070;20.804;2023-04-29T02:59:48;9.00;;;5.40;;
75535;SDS011;64119;52.070;20.804;2023-04-29T03:02:16;8.20;;;4.90;;
75535;SDS011;64119;52.070;20.804;2023-04-29T03:04:45;17.10;;;7.60;;
75535;SDS011;64119;52.070;20.804;2023-04-29T03:07:13;15.70;;;7.50;;
75535;SDS011;64119;52.070;20.804;2023-04-29T03:09:43;10.70;;;7.30;;
75535;SDS011;64119;52.070;20.804;2023-04-29T03:12:11;7.90;;;5.60;;
75535;SDS011;64119;52.070;20.804;2023-04-29T03:14:39;8.20;;;5.50;;
75535;SDS011;64119;52.070;20.804;2023-04-29T03:17:07;8.70;;;5.30;;
75535;SDS011;64119;52.070;20.804;2023-04-29T03:19:35;6.40;;;4.30;;
75535;SDS011;64119;52.070;20.804;2023-04-29T03:22:03;7.80;;;4.80;;
75535;SDS011;64119;52.070;20.804;2023-04-29T03:24:31;8.00;;;4.90;;
75535;SDS011;64119;52.070;20.804;2023-04-29T03:26:59;8.40;;;4.50;;
75535;SDS011;64119;52.070;20.804;2023-04-29T03:29:27;7.90;;;4.90;;
75535;SDS011;64119;52.070;20.804;2023-04-29T03:31:55;7.80;;;4.50;;
75535;SDS011;64119;52.070;20.804;2023-04-29T03:34:23;5.70;;;3.70;;
75535;SDS011;64119;52.070;20.804;2023-04-29T03:37:04;9.40;;;5.40;;
75535;SDS011;64119;52.070;20.804;2023-04-29T03:39:32;6.40;;;4.30;;
75535;SDS011;64119;52.070;20.804;2023-04-29T03:42:00;9.50;;;5.20;;
75535;SDS011;64119;52.070;20.804;2023-04-29T03:44:29;12.30;;;6.10;;
75535;SDS011;64119;52.070;20.804;2023-04-29T03:46:57;7.70;;;4.60;;
75535;SDS011;64119;52.070;20.804;2023-04-29T03:49:25;6.70;;;4.10;;
75535;SDS011;64119;52.070;20.804;2023-04-29T03:51:53;6.60;;;4.50;;
75535;SDS011;64119;52.070;20.804;2023-04-29T03:54:21;8.20;;;5.50;;
75535;SDS011;64119;52.070;20.804;2023-04-29T03:56:49;10.40;;;5.70;;
75535;SDS011;64119;52.070;20.804;2023-04-29T03:59:17;9.10;;;4.90;;
75535;SDS011;64119;52.070;20.804;2023-04-29T04:01:45;7.00;;;5.00;;
75535;SDS011;64119;52.070;20.804;2023-04-29T04:04:13;4.20;;;3.80;;
75535;SDS011;64119;52.070;20.804;2023-04-29T04:06:43;8.00;;;5.20;;
75535;SDS011;64119;52.070;20.804;2023-04-29T04:09:19;5.70;;;3.90;;
75535;SDS011;64119;52.070;20.804;2023-04-29T04:11:47;10.30;;;5.50;;
75535;SDS011;64119;52.070;20.804;2023-04-29T04:14:15;8.20;;;4.70;;
75535;SDS011;64119;52.070;20.804;2023-04-29T04:16:44;5.30;;;4.10;;
75535;SDS011;64119;52.070;20.804;2023-04-29T04:19:12;4.70;;;3.00;;
75535;SDS011;64119;52.070;20.804;2023-04-29T04:21:41;6.70;;;3.90;;
75535;SDS011;64119;52.070;20.804;2023-04-29T04:24:09;6.60;;;4.70;;
75535;SDS011;64119;52.070;20.804;2023-04-29T04:26:37;8.30;;;5.50;;
75535;SDS011;64119;52.070;20.804;2023-04-29T04:29:11;7.10;;;4.60;;
75535;SDS011;64119;52.070;20.804;2023-04-29T04:31:46;9.30;;;5.10;;
75535;SDS011;64119;52.070;20.804;2023-04-29T04:34:14;8.50;;;5.00;;
75535;SDS011;64119;52.070;20.804;2023-04-29T04:36:43;8.20;;;4.80;;
75535;SDS011;64119;52.070;20.804;2023-04-29T04:39:12;4.70;;;3.30;;
75535;SDS011;64119;52.070;20.804;2023-04-29T04:41:40;8.10;;;4.50;;
75535;SDS011;64119;52.070;20.804;2023-04-29T04:44:08;8.10;;;4.60;;
75535;SDS011;64119;52.070;20.804;2023-04-29T04:46:54;9.30;;;4.00;;
75535;SDS011;64119;52.070;20.804;2023-04-29T04:49:45;7.70;;;4.10;;
75535;SDS011;64119;52.070;20.804;2023-04-29T04:52:13;7.80;;;4.90;;
75535;SDS011;64119;52.070;20.804;2023-04-29T04:54:43;8.90;;;4.60;;
75535;SDS011;64119;52.070;20.804;2023-04-29T04:57:16;8.00;;;4.60;;
75535;SDS011;64119;52.070;20.804;2023-04-29T04:59:44;7.30;;;4.10;;
75535;SDS011;64119;52.070;20.804;2023-04-29T05:02:12;5.60;;;3.40;;
75535;SDS011;64119;52.070;20.804;2023-04-29T05:04:40;8.20;;;3.80;;
75535;SDS011;64119;52.070;20.804;2023-04-29T05:07:08;6.10;;;4.30;;
75535;SDS011;64119;52.070;20.804;2023-04-29T05:09:54;5.60;;;3.90;;
75535;SDS011;64119;52.070;20.804;2023-04-29T05:12:22;6.60;;;3.70;;
75535;SDS011;64119;52.070;20.804;2023-04-29T05:14:52;6.20;;;3.80;;
75535;SDS011;64119;52.070;20.804;2023-04-29T05:17:20;5.80;;;3.50;;
75535;SDS011;64119;52.070;20.804;2023-04-29T05:19:47;5.00;;;3.30;;
75535;SDS011;64119;52.070;20.804;2023-04-29T05:22:15;3.70;;;2.80;;
75535;SDS011;64119;52.070;20.804;2023-04-29T05:24:44;9.00;;;4.60;;
75535;SDS011;64119;52.070;20.804;2023-04-29T05:27:11;7.30;;;4.40;;
75535;SDS011;64119;52.070;20.804;2023-04-29T05:29:39;4.60;;;2.90;;
75535;SDS011;64119;52.070;20.804;2023-04-29T05:32:07;5.40;;;4.00;;
75535;SDS011;64119;52.070;20.804;2023-04-29T05:34:35;5.20;;;3.50;;
75535;SDS011;64119;52.070;20.804;2023-04-29T05:37:03;7.30;;;4.00;;
75535;SDS011;64119;52.070;20.804;2023-04-29T05:39:35;5.70;;;3.70;;
75535;SDS011;64119;52.070;20.804;2023-04-29T05:42:09;5.90;;;4.00;;
75535;SDS011;64119;52.070;20.804;2023-04-29T05:44:41;5.80;;;3.60;;
75535;SDS011;64119;52.070;20.804;2023-04-29T05:47:09;6.90;;;3.70;;
75535;SDS011;64119;52.070;20.804;2023-04-29T05:49:37;7.00;;;4.50;;
75535;SDS011;64119;52.070;20.804;2023-04-29T05:52:05;5.40;;;3.30;;
75535;SDS011;64119;52.070;20.804;2023-04-29T05:54:38;5.00;;;2.80;;
75535;SDS011;64119;52.070;20.804;2023-04-29T05:57:06;5.90;;;3.50;;
75535;SDS011;64119;52.070;20.804;2023-04-29T05:59:34;5.70;;;3.80;;
75535;SDS011;64119;52.070;20.804;2023-04-29T06:02:04;6.60;;;4.70;;
75535;SDS011;64119;52.070;20.804;2023-04-29T06:04:33;4.80;;;3.40;;
75535;SDS011;64119;52.070;20.804;2023-04-29T06:07:20;5.40;;;3.40;;
75535;SDS011;64119;52.070;20.804;2023-04-29T06:09:59;5.20;;;3.30;;
75535;SDS011;64119;52.070;20.804;2023-04-29T06:12:27;6.80;;;3.80;;
75535;SDS011;64119;52.070;20.804;2023-04-29T06:14:57;4.40;;;2.90;;
75535;SDS011;64119;52.070;20.804;2023-04-29T06:17:25;6.20;;;3.60;;
75535;SDS011;64119;52.070;20.804;2023-04-29T06:19:55;6.50;;;3.30;;
75535;SDS011;64119;52.070;20.804;2023-04-29T06:22:24;6.40;;;3.80;;
75535;SDS011;64119;52.070;20.804;2023-04-29T06:24:53;5.80;;;3.70;;
75535;SDS011;64119;52.070;20.804;2023-04-29T06:27:31;7.60;;;3.40;;
75535;SDS011;64119;52.070;20.804;2023-04-29T06:30:00;4.00;;;2.60;;
75535;SDS011;64119;52.070;20.804;2023-04-29T06:32:28;4.90;;;3.60;;
75535;SDS011;64119;52.070;20.804;2023-04-29T06:34:56;7.60;;;3.20;;
75535;SDS011;64119;52.070;20.804;2023-04-29T06:37:50;5.50;;;3.20;;
75535;SDS011;64119;52.070;20.804;2023-04-29T06:40:49;6.30;;;3.10;;
75535;SDS011;64119;52.070;20.804;2023-04-29T06:43:36;5.20;;;2.90;;
75535;SDS011;64119;52.070;20.804;2023-04-29T06:46:23;5.00;;;2.60;;
75535;SDS011;64119;52.070;20.804;2023-04-29T06:49:01;4.80;;;3.20;;
75535;SDS011;64119;52.070;20.804;2023-04-29T06:51:31;5.60;;;3.10;;
75535;SDS011;64119;52.070;20.804;2023-04-29T06:53:59;6.10;;;3.60;;
75535;SDS011;64119;52.070;20.804;2023-04-29T06:56:27;4.00;;;2.70;;
75535;SDS011;64119;52.070;20.804;2023-04-29T06:58:57;6.80;;;3.80;;
75535;SDS011;64119;52.070;20.804;2023-04-29T07:01:25;4.00;;;2.80;;
75535;SDS011;64119;52.070;20.804;2023-04-29T07:03:53;3.40;;;2.30;;
75535;SDS011;64119;52.070;20.804;2023-04-29T07:06:22;6.50;;;2.80;;
75535;SDS011;64119;52.070;20.804;2023-04-29T07:08:52;5.10;;;2.80;;
75535;SDS011;64119;52.070;20.804;2023-04-29T07:11:25;7.30;;;3.10;;
75535;SDS011;64119;52.070;20.804;2023-04-29T07:13:54;5.90;;;2.60;;
75535;SDS011;64119;52.070;20.804;2023-04-29T07:16:22;4.80;;;2.80;;
75535;SDS011;64119;52.070;20.804;2023-04-29T07:18:53;4.30;;;2.60;;
75535;SDS011;64119;52.070;20.804;2023-04-29T07:21:21;3.90;;;2.80;;
75535;SDS011;64119;52.070;20.804;2023-04-29T07:23:49;7.70;;;3.30;;
75535;SDS011;64119;52.070;20.804;2023-04-29T07:26:17;6.00;;;2.90;;
75535;SDS011;64119;52.070;20.804;2023-04-29T07:28:46;8.50;;;3.00;;
75535;SDS011;64119;52.070;20.804;2023-04-29T07:33:43;3.60;;;1.90;;
75535;SDS011;64119;52.070;20.804;2023-04-29T07:36:12;5.10;;;2.20;;
75535;SDS011;64119;52.070;20.804;2023-04-29T07:38:40;3.70;;;2.40;;
75535;SDS011;64119;52.070;20.804;2023-04-29T07:41:07;4.70;;;2.40;;
75535;SDS011;64119;52.070;20.804;2023-04-29T07:43:35;8.70;;;2.90;;
75535;SDS011;64119;52.070;20.804;2023-04-29T07:46:04;3.60;;;2.80;;
75535;SDS011;64119;52.070;20.804;2023-04-29T07:48:36;2.90;;;2.10;;
75535;SDS011;64119;52.070;20.804;2023-04-29T07:51:05;3.90;;;3.00;;
75535;SDS011;64119;52.070;20.804;2023-04-29T07:53:33;6.10;;;3.30;;
75535;SDS011;64119;52.070;20.804;2023-04-29T07:56:07;5.20;;;2.80;;
75535;SDS011;64119;52.070;20.804;2023-04-29T07:58:36;5.90;;;3.10;;
75535;SDS011;64119;52.070;20.804;2023-04-29T08:01:04;4.40;;;2.70;;
75535;SDS011;64119;52.070;20.804;2023-04-29T08:03:36;5.70;;;2.70;;
75535;SDS011;64119;52.070;20.804;2023-04-29T08:06:08;4.60;;;2.30;;
75535;SDS011;64119;52.070;20.804;2023-04-29T08:08:36;6.00;;;3.10;;
75535;SDS011;64119;52.070;20.804;2023-04-29T08:11:04;7.50;;;3.20;;
75535;SDS011;64119;52.070;20.804;2023-04-29T08:13:36;8.90;;;3.10;;
75535;SDS011;64119;52.070;20.804;2023-04-29T08:16:04;5.50;;;2.80;;
75535;SDS011;64119;52.070;20.804;2023-04-29T08:18:32;3.30;;;2.30;;
75535;SDS011;64119;52.070;20.804;2023-04-29T08:21:00;7.10;;;3.10;;
75535;SDS011;64119;52.070;20.804;2023-04-29T08:23:28;3.50;;;2.40;;
75535;SDS011;64119;52.070;20.804;2023-04-29T08:25:56;5.30;;;2.60;;
75535;SDS011;64119;52.070;20.804;2023-04-29T08:28:24;4.10;;;2.20;;
75535;SDS011;64119;52.070;20.804;2023-04-29T08:30:51;3.80;;;2.20;;
75535;SDS011;64119;52.070;20.804;2023-04-29T08:33:19;4.60;;;3.40;;
75535;SDS011;64119;52.070;20.804;2023-04-29T08:35:47;4.20;;;2.30;;
75535;SDS011;64119;52.070;20.804;2023-04-29T08:38:16;6.00;;;3.00;;
75535;SDS011;64119;52.070;20.804;2023-04-29T08:40:44;4.10;;;2.60;;
75535;SDS011;64119;52.070;20.804;2023-04-29T08:43:15;4.20;;;2.80;;
75535;SDS011;64119;52.070;20.804;2023-04-29T08:45:43;4.40;;;2.10;;
75535;SDS011;64119;52.070;20.804;2023-04-29T08:48:14;4.60;;;2.20;;
75535;SDS011;64119;52.070;20.804;2023-04-29T08:50:44;4.10;;;2.60;;
75535;SDS011;64119;52.070;20.804;2023-04-29T08:53:13;4.70;;;2.60;;
75535;SDS011;64119;52.070;20.804;2023-04-29T08:55:42;5.20;;;2.20;;
75535;SDS011;64119;52.070;20.804;2023-04-29T08:58:12;7.40;;;2.20;;
75535;SDS011;64119;52.070;20.804;2023-04-29T09:03:24;4.30;;;2.90;;
75535;SDS011;64119;52.070;20.804;2023-04-29T09:05:57;3.90;;;2.30;;
75535;SDS011;64119;52.070;20.804;2023-04-29T09:08:28;2.90;;;2.20;;
75535;SDS011;64119;52.070;20.804;2023-04-29T09:11:01;3.90;;;2.20;;
75535;SDS011;64119;52.070;20.804;2023-04-29T09:13:31;5.20;;;2.40;;
75535;SDS011;64119;52.070;20.804;2023-04-29T09:15:59;4.70;;;2.60;;
75535;SDS011;64119;52.070;20.804;2023-04-29T09:23:49;5.10;;;2.50;;
75535;SDS011;64119;52.070;20.804;2023-04-29T09:26:19;7.80;;;2.80;;
75535;SDS011;64119;52.070;20.804;2023-04-29T09:29:10;3.50;;;2.40;;
75535;SDS011;64119;52.070;20.804;2023-04-29T09:31:43;4.80;;;1.90;;
75535;SDS011;64119;52.070;20.804;2023-04-29T09:34:11;5.20;;;2.40;;
75535;SDS011;64119;52.070;20.804;2023-04-29T09:36:49;4.90;;;2.30;;
75535;SDS011;64119;52.070;20.804;2023-04-29T09:39:18;3.30;;;2.30;;
75535;SDS011;64119;52.070;20.804;2023-04-29T09:44:20;4.20;;;2.00;;
75535;SDS011;64119;52.070;20.804;2023-04-29T09:47:28;2.50;;;1.80;;
75535;SDS011;64119;52.070;20.804;2023-04-29T09:49:44;6.40;;;2.10;;
75535;SDS011;64119;52.070;20.804;2023-04-29T09:52:13;2.90;;;2.10;;
75535;SDS011;64119;52.070;20.804;2023-04-29T09:54:47;6.00;;;3.10;;
75535;SDS011;64119;52.070;20.804;2023-04-29T09:57:14;3.90;;;2.10;;
75535;SDS011;64119;52.070;20.804;2023-04-29T09:59:42;3.80;;;2.10;;
75535;SDS011;64119;52.070;20.804;2023-04-29T10:02:14;3.20;;;2.10;;
75535;SDS011;64119;52.070;20.804;2023-04-29T10:04:53;5.50;;;2.40;;
75535;SDS011;64119;52.070;20.804;2023-04-29T10:07:24;2.90;;;2.50;;
75535;SDS011;64119;52.070;20.804;2023-04-29T10:09:54;4.00;;;2.00;;
75535;SDS011;64119;52.070;20.804;2023-04-29T10:12:23;4.00;;;2.10;;
75535;SDS011;64119;52.070;20.804;2023-04-29T10:14:57;4.40;;;2.30;;
75535;SDS011;64119;52.070;20.804;2023-04-29T10:20:24;5.50;;;2.00;;
75535;SDS011;64119;52.070;20.804;2023-04-29T10:22:53;4.20;;;2.30;;
75535;SDS011;64119;52.070;20.804;2023-04-29T10:25:23;4.10;;;1.90;;
75535;SDS011;64119;52.070;20.804;2023-04-29T10:27:54;3.30;;;2.20;;
75535;SDS011;64119;52.070;20.804;2023-04-29T10:30:22;4.30;;;2.00;;
75535;SDS011;64119;52.070;20.804;2023-04-29T10:32:50;3.10;;;2.20;;
75535;SDS011;64119;52.070;20.804;2023-04-29T10:35:20;3.40;;;1.80;;
75535;SDS011;64119;52.070;20.804;2023-04-29T10:37:50;4.00;;;2.60;;
75535;SDS011;64119;52.070;20.804;2023-04-29T10:40:30;4.00;;;2.60;;
75535;SDS011;64119;52.070;20.804;2023-04-29T10:43:02;4.30;;;2.20;;
75535;SDS011;64119;52.070;20.804;2023-04-29T10:45:31;3.60;;;2.50;;
75535;SDS011;64119;52.070;20.804;2023-04-29T10:50:33;4.90;;;2.70;;
75535;SDS011;64119;52.070;20.804;2023-04-29T10:53:08;3.50;;;2.40;;
75535;SDS011;64119;52.070;20.804;2023-04-29T10:55:36;4.10;;;2.40;;
75535;SDS011;64119;52.070;20.804;2023-04-29T10:58:05;4.30;;;2.50;;
75535;SDS011;64119;52.070;20.804;2023-04-29T11:00:59;6.10;;;2.50;;
75535;SDS011;64119;52.070;20.804;2023-04-29T11:14:09;5.00;;;2.60;;
75535;SDS011;64119;52.070;20.804;2023-04-29T11:16:45;5.00;;;3.10;;
75535;SDS011;64119;52.070;20.804;2023-04-29T11:19:17;3.10;;;2.10;;
75535;SDS011;64119;52.070;20.804;2023-04-29T11:21:45;5.10;;;3.10;;
75535;SDS011;64119;52.070;20.804;2023-04-29T11:24:13;4.30;;;2.60;;
75535;SDS011;64119;52.070;20.804;2023-04-29T11:26:42;3.10;;;2.50;;
75535;SDS011;64119;52.070;20.804;2023-04-29T11:29:10;7.40;;;2.90;;
75535;SDS011;64119;52.070;20.804;2023-04-29T11:31:39;6.70;;;2.50;;
75535;SDS011;64119;52.070;20.804;2023-04-29T11:34:07;4.70;;;2.80;;
75535;SDS011;64119;52.070;20.804;2023-04-29T11:36:35;4.60;;;3.30;;
75535;SDS011;64119;52.070;20.804;2023-04-29T11:39:03;6.30;;;2.80;;
75535;SDS011;64119;52.070;20.804;2023-04-29T11:41:31;5.40;;;2.20;;
75535;SDS011;64119;52.070;20.804;2023-04-29T11:43:59;3.80;;;2.40;;
75535;SDS011;64119;52.070;20.804;2023-04-29T11:46:29;4.80;;;2.80;;
75535;SDS011;64119;52.070;20.804;2023-04-29T11:48:57;4.80;;;3.20;;
75535;SDS011;64119;52.070;20.804;2023-04-29T11:51:28;3.10;;;2.30;;
75535;SDS011;64119;52.070;20.804;2023-04-29T11:53:59;3.80;;;2.00;;
75535;SDS011;64119;52.070;20.804;2023-04-29T11:56:27;4.20;;;2.40;;
75535;SDS011;64119;52.070;20.804;2023-04-29T11:58:55;8.90;;;3.10;;
75535;SDS011;64119;52.070;20.804;2023-04-29T12:01:24;5.40;;;3.20;;
75535;SDS011;64119;52.070;20.804;2023-04-29T12:03:56;5.90;;;2.70;;
75535;SDS011;64119;52.070;20.804;2023-04-29T12:06:29;5.30;;;2.90;;
75535;SDS011;64119;52.070;20.804;2023-04-29T12:08:58;6.80;;;2.80;;
75535;SDS011;64119;52.070;20.804;2023-04-29T12:11:27;5.10;;;3.50;;
75535;SDS011;64119;52.070;20.804;2023-04-29T12:13:56;3.50;;;2.50;;
75535;SDS011;64119;52.070;20.804;2023-04-29T12:16:24;5.00;;;2.60;;
75535;SDS011;64119;52.070;20.804;2023-04-29T12:18:55;4.80;;;2.60;;
75535;SDS011;64119;52.070;20.804;2023-04-29T12:21:25;6.00;;;3.10;;
75535;SDS011;64119;52.070;20.804;2023-04-29T12:26:26;5.60;;;3.10;;
75535;SDS011;64119;52.070;20.804;2023-04-29T12:28:55;7.30;;;3.50;;
75535;SDS011;64119;52.070;20.804;2023-04-29T12:31:31;4.70;;;2.80;;
75535;SDS011;64119;52.070;20.804;2023-04-29T12:34:03;4.40;;;2.90;;
75535;SDS011;64119;52.070;20.804;2023-04-29T12:36:36;4.60;;;3.00;;
75535;SDS011;64119;52.070;20.804;2023-04-29T12:39:04;4.70;;;2.70;;
75535;SDS011;64119;52.070;20.804;2023-04-29T12:41:39;4.50;;;2.10;;
75535;SDS011;64119;52.070;20.804;2023-04-29T12:44:08;3.60;;;2.60;;
75535;SDS011;64119;52.070;20.804;2023-04-29T12:46:40;4.30;;;2.50;;
75535;SDS011;64119;52.070;20.804;2023-04-29T12:49:08;3.20;;;2.40;;
75535;SDS011;64119;52.070;20.804;2023-04-29T12:51:36;7.70;;;4.60;;
75535;SDS011;64119;52.070;20.804;2023-04-29T12:54:04;7.80;;;3.60;;
75535;SDS011;64119;52.070;20.804;2023-04-29T12:56:33;4.20;;;2.60;;
75535;SDS011;64119;52.070;20.804;2023-04-29T12:59:05;4.80;;;3.30;;
75535;SDS011;64119;52.070;20.804;2023-04-29T13:01:34;5.00;;;3.30;;
75535;SDS011;64119;52.070;20.804;2023-04-29T13:06:33;3.70;;;2.10;;
75535;SDS011;64119;52.070;20.804;2023-04-29T13:09:09;4.20;;;3.00;;
75535;SDS011;64119;52.070;20.804;2023-04-29T13:11:45;5.90;;;3.10;;
75535;SDS011;64119;52.070;20.804;2023-04-29T13:14:13;8.70;;;3.10;;
75535;SDS011;64119;52.070;20.804;2023-04-29T13:16:42;5.40;;;3.90;;
75535;SDS011;64119;52.070;20.804;2023-04-29T13:19:10;5.90;;;3.30;;
75535;SDS011;64119;52.070;20.804;2023-04-29T13:21:58;6.80;;;3.60;;
75535;SDS011;64119;52.070;20.804;2023-04-29T13:24:25;4.40;;;3.10;;
75535;SDS011;64119;52.070;20.804;2023-04-29T13:26:53;4.00;;;2.90;;
75535;SDS011;64119;52.070;20.804;2023-04-29T13:29:21;4.90;;;3.00;;
75535;SDS011;64119;52.070;20.804;2023-04-29T13:31:50;7.10;;;3.60;;
75535;SDS011;64119;52.070;20.804;2023-04-29T13:34:18;5.10;;;3.00;;
75535;SDS011;64119;52.070;20.804;2023-04-29T13:36:47;6.10;;;4.00;;
75535;SDS011;64119;52.070;20.804;2023-04-29T13:39:15;8.40;;;3.80;;
75535;SDS011;64119;52.070;20.804;2023-04-29T13:41:44;5.50;;;3.70;;
75535;SDS011;64119;52.070;20.804;2023-04-29T13:44:13;7.60;;;4.20;;
75535;SDS011;64119;52.070;20.804;2023-04-29T13:46:59;7.70;;;3.90;;
75535;SDS011;64119;52.070;20.804;2023-04-29T13:49:28;5.70;;;3.70;;
75535;SDS011;64119;52.070;20.804;2023-04-29T13:52:16;5.10;;;3.30;;
75535;SDS011;64119;52.070;20.804;2023-04-29T13:54:46;5.80;;;3.00;;
75535;SDS011;64119;52.070;20.804;2023-04-29T13:57:34;6.30;;;3.80;;
75535;SDS011;64119;52.070;20.804;2023-04-29T14:00:05;5.70;;;3.80;;
75535;SDS011;64119;52.070;20.804;2023-04-29T14:02:55;5.90;;;3.40;;
75535;SDS011;64119;52.070;20.804;2023-04-29T14:05:26;4.90;;;3.40;;
75535;SDS011;64119;52.070;20.804;2023-04-29T14:07:55;4.40;;;3.00;;
75535;SDS011;64119;52.070;20.804;2023-04-29T14:10:23;4.80;;;3.30;;
75535;SDS011;64119;52.070;20.804;2023-04-29T14:12:50;5.60;;;3.40;;
75535;SDS011;64119;52.070;20.804;2023-04-29T14:15:18;6.60;;;3.00;;
75535;SDS011;64119;52.070;20.804;2023-04-29T14:17:46;4.80;;;2.70;;
75535;SDS011;64119;52.070;20.804;2023-04-29T14:20:16;6.50;;;3.20;;
75535;SDS011;64119;52.070;20.804;2023-04-29T14:22:44;4.80;;;3.60;;
75535;SDS011;64119;52.070;20.804;2023-04-29T14:25:12;6.60;;;3.70;;
75535;SDS011;64119;52.070;20.804;2023-04-29T14:27:40;5.30;;;3.80;;
75535;SDS011;64119;52.070;20.804;2023-04-29T14:30:08;6.10;;;3.90;;
75535;SDS011;64119;52.070;20.804;2023-04-29T14:32:36;6.40;;;3.90;;
75535;SDS011;64119;52.070;20.804;2023-04-29T14:35:04;5.20;;;3.10;;
75535;SDS011;64119;52.070;20.804;2023-04-29T14:37:32;4.80;;;3.20;;
75535;SDS011;64119;52.070;20.804;2023-04-29T14:40:00;4.40;;;2.50;;
75535;SDS011;64119;52.070;20.804;2023-04-29T14:42:28;5.20;;;3.20;;
75535;SDS011;64119;52.070;20.804;2023-04-29T14:44:56;3.80;;;2.90;;
75535;SDS011;64119;52.070;20.804;2023-04-29T14:47:24;5.80;;;3.20;;
75535;SDS011;64119;52.070;20.804;2023-04-29T14:49:52;6.20;;;3.20;;
75535;SDS011;64119;52.070;20.804;2023-04-29T14:52:20;3.00;;;2.60;;
75535;SDS011;64119;52.070;20.804;2023-04-29T14:54:48;3.00;;;1.80;;
75535;SDS011;64119;52.070;20.804;2023-04-29T14:57:16;4.00;;;3.20;;
75535;SDS011;64119;52.070;20.804;2023-04-29T14:59:43;6.00;;;3.50;;
75535;SDS011;64119;52.070;20.804;2023-04-29T15:02:11;6.90;;;3.00;;
75535;SDS011;64119;52.070;20.804;2023-04-29T15:04:39;4.80;;;2.70;;
75535;SDS011;64119;52.070;20.804;2023-04-29T15:07:12;4.50;;;2.90;;
75535;SDS011;64119;52.070;20.804;2023-04-29T15:09:40;5.50;;;3.10;;
75535;SDS011;64119;52.070;20.804;2023-04-29T15:12:08;4.50;;;2.70;;
75535;SDS011;64119;52.070;20.804;2023-04-29T15:14:36;8.30;;;3.60;;
75535;SDS011;64119;52.070;20.804;2023-04-29T15:17:04;6.00;;;3.00;;
75535;SDS011;64119;52.070;20.804;2023-04-29T15:19:32;5.20;;;3.30;;
75535;SDS011;64119;52.070;20.804;2023-04-29T15:22:00;7.10;;;4.00;;
75535;SDS011;64119;52.070;20.804;2023-04-29T15:24:27;6.10;;;3.40;;
75535;SDS011;64119;52.070;20.804;2023-04-29T15:26:55;5.40;;;3.00;;
75535;SDS011;64119;52.070;20.804;2023-04-29T15:29:23;5.80;;;3.30;;
75535;SDS011;64119;52.070;20.804;2023-04-29T15:31:51;7.80;;;3.00;;
75535;SDS011;64119;52.070;20.804;2023-04-29T15:34:18;4.00;;;2.90;;
75535;SDS011;64119;52.070;20.804;2023-04-29T15:36:46;4.60;;;3.00;;
75535;SDS011;64119;52.070;20.804;2023-04-29T15:39:14;3.80;;;2.70;;
75535;SDS011;64119;52.070;20.804;2023-04-29T15:41:43;5.70;;;3.50;;